createdAt,value
2023-05-16T00:00:18.824Z,96794.91
2023-05-16T00:02:45.742Z,96800.34
2023-05-16T00:05:14.835Z,96804.53
2023-05-16T00:07:46.528Z,96806.56
2023-05-16T00:10:13.924Z,96802.72
2023-05-16T00:12:40.615Z,96804.66
2023-05-16T00:15:09.087Z,96790.28
2023-05-16T00:17:36.414Z,96793.09
2023-05-16T00:20:11.331Z,96806.03
2023-05-16T00:22:38.258Z,96805.69
2023-05-16T00:25:05.388Z,96809.91
2023-05-16T00:27:34.849Z,96813.84
2023-05-16T00:30:02.821Z,96808.69
2023-05-16T00:32:29.580Z,96826.63
2023-05-16T00:34:56.600Z,96822.75
2023-05-16T00:37:23.279Z,96825.34
2023-05-16T00:39:50.007Z,96823.00
2023-05-16T00:42:20.102Z,96833.44
2023-05-16T00:44:47.568Z,96831.06
2023-05-16T00:47:14.978Z,96827.00
2023-05-16T00:49:42.218Z,96823.72
2023-05-16T00:52:09.065Z,96828.47
2023-05-16T00:54:36.295Z,96830.16
2023-05-16T00:57:03.758Z,96820.31
2023-05-16T00:59:31.048Z,96820.00
2023-05-16T01:01:57.800Z,96824.84
2023-05-16T01:04:25.432Z,96823.88
2023-05-16T01:06:52.418Z,96828.16
2023-05-16T01:09:19.629Z,96830.53
2023-05-16T01:11:49.077Z,96824.22
2023-05-16T01:14:33.872Z,96830.81
2023-05-16T01:17:16.178Z,96831.56
2023-05-16T01:20:21.417Z,96829.66
2023-05-16T01:23:16.790Z,96833.31
2023-05-16T01:25:52.594Z,96831.38
2023-05-16T01:28:20.203Z,96831.38
2023-05-16T01:30:46.899Z,96828.31
2023-05-16T01:33:13.670Z,96820.81
2023-05-16T01:35:53.522Z,96822.75
2023-05-16T01:38:30.759Z,96815.59
2023-05-16T01:41:08.129Z,96818.31
2023-05-16T01:43:40.114Z,96823.78
2023-05-16T01:46:12.778Z,96829.34
2023-05-16T01:48:53.273Z,96823.00
2023-05-16T01:51:25.797Z,96832.06
2023-05-16T01:53:53.701Z,96831.28
2023-05-16T01:56:21.709Z,96830.84
2023-05-16T01:58:50.564Z,96824.47
2023-05-16T02:01:17.575Z,96830.84
2023-05-16T02:03:44.336Z,96828.91
2023-05-16T02:06:11.095Z,96821.06
2023-05-16T02:08:38.061Z,96821.66
2023-05-16T02:11:04.753Z,96814.16
2023-05-16T02:13:31.421Z,96822.78
2023-05-16T02:15:58.269Z,96829.38
2023-05-16T02:18:24.940Z,96828.59
2023-05-16T02:20:52.328Z,96828.59
2023-05-16T02:23:19.122Z,96832.34
2023-05-16T02:25:45.872Z,96833.47
2023-05-16T02:28:12.512Z,96836.53
2023-05-16T02:30:39.272Z,96832.13
2023-05-16T02:33:06.265Z,96837.19
2023-05-16T02:35:32.972Z,96836.88
2023-05-16T02:37:59.778Z,96839.25
2023-05-16T02:40:26.475Z,96832.34
2023-05-16T02:42:53.165Z,96831.88
2023-05-16T02:45:19.884Z,96832.22
2023-05-16T02:47:46.610Z,96841.19
2023-05-16T02:50:13.912Z,96840.72
2023-05-16T02:52:40.879Z,96838.34
2023-05-16T02:57:39.107Z,96840.72
2023-05-16T03:00:06.563Z,96844.81
2023-05-16T03:02:33.613Z,96844.59
2023-05-16T03:05:00.710Z,96837.78
2023-05-16T03:07:27.522Z,96843.34
2023-05-16T03:09:54.137Z,96838.25
2023-05-16T03:12:20.826Z,96850.50
2023-05-16T03:14:47.597Z,96840.28
2023-05-16T03:17:14.255Z,96843.91
2023-05-16T03:19:40.895Z,96846.66
2023-05-16T03:22:07.662Z,96842.75
2023-05-16T03:24:34.369Z,96849.13
2023-05-16T03:27:01.285Z,96843.44
2023-05-16T03:29:28.073Z,96845.03
2023-05-16T03:31:55.372Z,96843.09
2023-05-16T03:34:22.208Z,96842.78
2023-05-16T03:36:52.004Z,96849.56
2023-05-16T03:39:18.688Z,96858.44
2023-05-16T03:41:45.304Z,96855.44
2023-05-16T03:44:12.167Z,96859.63
2023-05-16T03:46:38.823Z,96859.69
2023-05-16T03:49:05.870Z,96857.91
2023-05-16T03:51:33.608Z,96858.81
2023-05-16T03:54:00.444Z,96867.72
2023-05-16T03:56:27.363Z,96868.44
2023-05-16T03:58:53.993Z,96861.84
2023-05-16T04:01:20.691Z,96854.47
2023-05-16T04:03:47.389Z,96859.50
2023-05-16T04:06:14.295Z,96861.75
2023-05-16T04:08:41.304Z,96860.34
2023-05-16T04:11:08.004Z,96859.63
2023-05-16T04:13:34.889Z,96851.13
2023-05-16T04:16:01.582Z,96858.88
2023-05-16T04:18:28.250Z,96852.34
2023-05-16T04:20:54.955Z,96859.59
2023-05-16T04:23:21.624Z,96850.34
2023-05-16T04:25:48.204Z,96849.28
2023-05-16T04:28:14.964Z,96857.38
2023-05-16T04:30:41.620Z,96860.19
2023-05-16T04:33:08.520Z,96835.00
2023-05-16T04:35:35.648Z,96854.66
2023-05-16T04:38:02.776Z,96856.19
2023-05-16T04:40:29.585Z,96862.06
2023-05-16T04:42:56.399Z,96846.59
2023-05-16T04:45:23.226Z,96864.59
2023-05-16T04:47:49.963Z,96872.84
2023-05-16T04:50:18.244Z,96873.16
2023-05-16T04:52:45.018Z,96876.28
2023-05-16T04:55:11.835Z,96876.63
2023-05-16T04:57:38.484Z,96875.03
2023-05-16T05:00:09.108Z,96878.09
2023-05-16T05:02:36.103Z,96872.91
2023-05-16T05:05:03.523Z,96884.56
2023-05-16T05:07:30.334Z,96891.41
2023-05-16T05:09:57.258Z,96890.59
2023-05-16T05:12:24.116Z,96896.53
2023-05-16T05:14:51.247Z,96904.03
2023-05-16T05:17:18.256Z,96901.72
2023-05-16T05:19:45.166Z,96912.44
2023-05-16T05:22:12.218Z,96899.03
2023-05-16T05:24:38.878Z,96909.72
2023-05-16T05:27:05.820Z,96907.59
2023-05-16T05:29:32.749Z,96909.63
2023-05-16T05:31:59.477Z,96912.31
2023-05-16T05:34:26.108Z,96894.22
2023-05-16T05:36:52.829Z,96902.09
2023-05-16T05:39:19.493Z,96917.31
2023-05-16T05:41:46.249Z,96906.44
2023-05-16T05:44:13.041Z,96901.69
2023-05-16T05:46:40.234Z,96905.63
2023-05-16T05:49:07.070Z,96893.59
2023-05-16T05:51:33.877Z,96908.13
2023-05-16T05:54:01.706Z,96909.84
2023-05-16T05:56:28.686Z,96912.13
2023-05-16T05:58:55.398Z,96922.38
2023-05-16T06:01:22.394Z,96911.34
2023-05-16T06:03:49.018Z,96912.91
2023-05-16T06:06:16.017Z,96911.25
2023-05-16T06:08:42.746Z,96924.28
2023-05-16T06:11:09.538Z,96909.50
2023-05-16T06:13:36.497Z,96912.41
2023-05-16T06:16:03.385Z,96899.31
2023-05-16T06:18:30.173Z,96909.53
2023-05-16T06:20:56.978Z,96907.22
2023-05-16T06:23:23.652Z,96913.66
2023-05-16T06:25:51.114Z,96917.03
2023-05-16T06:28:17.914Z,96914.66
2023-05-16T06:30:44.623Z,96915.63
2023-05-16T06:33:11.554Z,96914.72
2023-05-16T06:35:39.728Z,96921.09
2023-05-16T06:38:06.426Z,96915.03
2023-05-16T06:40:33.238Z,96929.97
2023-05-16T06:43:00.094Z,96924.66
2023-05-16T06:45:27.402Z,96921.09
2023-05-16T06:47:55.948Z,96916.97
2023-05-16T06:50:24.223Z,96914.44
2023-05-16T06:52:51.035Z,96898.06
2023-05-16T06:55:17.722Z,96905.63
2023-05-16T06:57:44.661Z,96904.13
2023-05-16T07:00:12.082Z,96902.75
2023-05-16T07:02:39.067Z,96898.53
2023-05-16T07:05:07.336Z,96926.41
2023-05-16T07:07:34.058Z,96929.63
2023-05-16T07:10:01.020Z,96931.88
2023-05-16T07:12:28.021Z,96932.88
2023-05-16T07:14:54.879Z,96932.75
2023-05-16T07:17:21.600Z,96925.84
2023-05-16T07:19:50.096Z,96916.97
2023-05-16T07:22:16.860Z,96925.03
2023-05-16T07:24:43.672Z,96916.28
2023-05-16T07:27:10.953Z,96933.13
2023-05-16T07:29:41.145Z,96930.63
2023-05-16T07:32:08.271Z,96930.88
2023-05-16T07:34:35.199Z,96936.41
2023-05-16T07:37:01.891Z,96932.16
2023-05-16T07:39:28.646Z,96933.50
2023-05-16T07:41:55.792Z,96946.84
2023-05-16T07:44:22.726Z,96946.75
2023-05-16T07:46:49.457Z,96950.09
2023-05-16T07:49:17.285Z,96949.50
2023-05-16T07:51:43.984Z,96942.75
2023-05-16T07:54:10.795Z,96948.19
2023-05-16T07:56:38.703Z,96950.00
2023-05-16T07:59:07.149Z,96955.44
2023-05-16T08:01:34.371Z,96968.44
2023-05-16T08:04:01.170Z,96975.53
2023-05-16T08:06:27.966Z,96980.59
2023-05-16T08:08:55.192Z,96992.81
2023-05-16T08:11:22.717Z,96983.19
2023-05-16T08:13:50.492Z,96997.50
2023-05-16T08:16:17.802Z,96996.31
2023-05-16T08:18:44.649Z,96988.88
2023-05-16T08:21:11.648Z,96994.25
2023-05-16T08:23:38.383Z,96998.22
2023-05-16T08:26:05.458Z,97006.75
2023-05-16T08:28:32.465Z,96998.53
2023-05-16T08:30:59.493Z,96994.03
2023-05-16T08:33:26.250Z,97000.19
2023-05-16T08:35:53.659Z,97008.56
2023-05-16T08:38:20.923Z,97000.41
2023-05-16T08:40:47.732Z,96989.50
2023-05-16T08:43:14.933Z,96999.72
2023-05-16T08:45:44.396Z,97010.63
2023-05-16T08:48:12.211Z,97005.34
2023-05-16T08:50:39.128Z,97003.94
2023-05-16T08:53:08.428Z,96998.34
2023-05-16T08:55:36.840Z,97009.44
2023-05-16T08:58:04.423Z,96998.03
2023-05-16T09:00:31.920Z,97002.78
2023-05-16T09:02:59.465Z,96997.59
2023-05-16T09:05:28.406Z,97000.50
2023-05-16T09:07:56.407Z,96991.19
2023-05-16T09:10:24.683Z,96992.81
2023-05-16T09:12:51.392Z,96996.41
2023-05-16T09:15:20.261Z,97000.75
2023-05-16T09:17:48.731Z,96996.72
2023-05-16T09:20:19.093Z,97018.59
2023-05-16T09:23:01.465Z,97016.47
2023-05-16T09:25:32.065Z,97007.50
2023-05-16T09:28:02.889Z,96998.59
2023-05-16T09:30:32.517Z,97006.53
2023-05-16T09:32:59.798Z,96999.34
2023-05-16T09:37:56.998Z,97003.09
2023-05-16T09:40:24.483Z,96983.78
2023-05-16T09:43:05.910Z,96993.44
2023-05-16T09:45:35.016Z,97003.94
2023-05-16T09:48:06.968Z,96999.53
2023-05-16T09:50:35.216Z,96995.72
2023-05-16T09:53:02.622Z,97001.78
2023-05-16T09:55:31.501Z,97000.38
2023-05-16T09:57:58.394Z,96996.91
2023-05-16T10:00:32.639Z,96993.72
2023-05-16T10:03:04.338Z,97006.56
2023-05-16T10:05:32.546Z,96998.22
2023-05-16T10:07:59.232Z,97005.94
2023-05-16T10:10:27.556Z,97003.75
2023-05-16T10:12:59.214Z,96998.63
2023-05-16T10:15:27.736Z,96989.91
2023-05-16T10:17:57.833Z,96991.69
2023-05-16T10:20:26.562Z,96995.34
2023-05-16T10:22:56.166Z,97000.09
2023-05-16T10:25:23.005Z,96991.34
2023-05-16T10:27:51.232Z,96988.72
2023-05-16T10:30:19.563Z,96988.97
2023-05-16T10:32:46.960Z,96988.38
2023-05-16T10:35:14.757Z,96994.72
2023-05-16T10:37:42.602Z,96983.72
2023-05-16T10:40:10.378Z,96987.59
2023-05-16T10:42:37.176Z,96981.94
2023-05-16T10:45:17.336Z,96982.50
2023-05-16T10:47:57.079Z,96983.25
2023-05-16T10:50:34.071Z,96985.19
2023-05-16T10:53:23.928Z,96984.47
2023-05-16T10:56:06.933Z,96990.38
2023-05-16T10:58:33.615Z,96991.13
2023-05-16T11:01:22.770Z,96985.66
2023-05-16T11:03:58.713Z,96980.84
2023-05-16T11:06:26.553Z,96994.59
2023-05-16T11:09:11.449Z,96994.28
2023-05-16T11:11:49.328Z,96987.94
2023-05-16T11:14:24.019Z,96981.28
2023-05-16T11:16:52.906Z,96983.75
2023-05-16T11:19:43.769Z,96988.81
2023-05-16T11:22:19.674Z,96978.56
2023-05-16T11:24:59.342Z,96973.84
2023-05-16T11:27:34.423Z,96976.66
2023-05-16T11:30:03.565Z,96980.25
2023-05-16T11:32:31.449Z,96988.91
2023-05-16T11:34:58.889Z,96979.84
2023-05-16T11:37:25.923Z,96973.56
2023-05-16T11:39:52.727Z,96959.78
2023-05-16T11:42:19.829Z,96963.66
2023-05-16T11:44:46.866Z,96973.63
2023-05-16T11:47:13.818Z,96967.00
2023-05-16T11:49:41.768Z,96960.34
2023-05-16T11:52:09.889Z,96961.50
2023-05-16T11:54:37.023Z,96958.72
2023-05-16T11:57:03.958Z,96968.94
2023-05-16T11:59:31.314Z,96981.84
2023-05-16T12:01:58.162Z,96985.28
2023-05-16T12:04:28.525Z,96990.81
2023-05-16T12:07:00.897Z,96990.53
2023-05-16T12:09:27.677Z,96978.75
2023-05-16T12:11:54.607Z,96991.41
2023-05-16T12:14:21.646Z,97000.84
2023-05-16T12:16:49.603Z,96974.00
2023-05-16T12:19:17.074Z,96982.69
2023-05-16T12:21:44.002Z,96990.66
2023-05-16T12:24:13.046Z,96992.69
2023-05-16T12:26:41.478Z,96985.97
2023-05-16T12:29:08.310Z,96981.22
2023-05-16T12:31:40.914Z,96996.25
2023-05-16T12:34:18.557Z,96985.63
2023-05-16T12:36:45.581Z,96981.66
2023-05-16T12:39:14.159Z,96980.88
2023-05-16T12:41:43.415Z,96980.56
2023-05-16T12:44:17.997Z,96989.94
2023-05-16T12:46:46.869Z,96991.44
2023-05-16T12:49:14.656Z,96985.53
2023-05-16T12:51:41.953Z,96978.13
2023-05-16T12:54:11.935Z,96979.00
2023-05-16T12:56:40.861Z,96979.81
2023-05-16T12:59:08.585Z,96971.94
2023-05-16T13:01:38.711Z,96975.06
2023-05-16T13:04:06.147Z,96971.84
2023-05-16T13:06:48.901Z,96970.31
2023-05-16T13:09:20.038Z,96959.28
2023-05-16T13:11:46.780Z,96966.78
2023-05-16T13:14:13.567Z,96967.97
2023-05-16T13:16:40.406Z,96958.94
2023-05-16T13:19:08.153Z,96960.91
2023-05-16T13:21:34.903Z,96953.41
2023-05-16T13:24:01.723Z,96965.63
2023-05-16T13:26:28.460Z,96965.66
2023-05-16T13:28:55.672Z,96970.00
2023-05-16T13:31:22.822Z,96958.19
2023-05-16T13:33:49.610Z,96975.53
2023-05-16T13:36:16.726Z,96956.25
2023-05-16T13:38:43.558Z,96962.16
2023-05-16T13:41:10.365Z,96964.19
2023-05-16T13:43:37.147Z,96952.72
2023-05-16T13:46:04.075Z,96967.31
2023-05-16T13:48:31.062Z,96953.91
2023-05-16T13:50:58.025Z,96960.19
2023-05-16T13:53:26.565Z,96957.03
2023-05-16T13:55:53.288Z,96956.28
2023-05-16T13:58:20.150Z,96954.69
2023-05-16T14:00:48.632Z,96954.28
2023-05-16T14:03:15.770Z,96945.22
2023-05-16T14:05:43.316Z,96945.97
2023-05-16T14:08:10.066Z,96942.03
2023-05-16T14:10:36.832Z,96939.31
2023-05-16T14:13:06.320Z,96933.41
2023-05-16T14:15:33.044Z,96931.06
2023-05-16T14:18:00.099Z,96918.50
2023-05-16T14:20:27.297Z,96929.94
2023-05-16T14:22:54.071Z,96924.41
2023-05-16T14:25:24.017Z,96916.91
2023-05-16T14:27:51.310Z,96914.56
2023-05-16T14:30:19.277Z,96919.66
2023-05-16T14:32:46.056Z,96912.19
2023-05-16T14:35:12.929Z,96899.97
2023-05-16T14:37:40.152Z,96918.47
2023-05-16T14:40:09.357Z,96914.91
2023-05-16T14:42:36.456Z,96927.91
2023-05-16T14:45:03.305Z,96922.78
2023-05-16T14:47:31.424Z,96934.97
2023-05-16T14:49:58.332Z,96925.50
2023-05-16T14:52:25.107Z,96933.75
2023-05-16T14:54:51.908Z,96942.81
2023-05-16T14:57:18.979Z,96941.19
2023-05-16T14:59:45.709Z,96950.22
2023-05-16T15:02:12.562Z,96952.94
2023-05-16T15:04:40.184Z,96950.19
2023-05-16T15:07:07.629Z,96956.84
2023-05-16T15:09:34.479Z,96952.06
2023-05-16T15:12:02.177Z,96947.66
2023-05-16T15:14:29.257Z,96954.75
2023-05-16T15:16:56.167Z,96964.56
2023-05-16T15:19:23.190Z,96974.78
2023-05-16T15:21:50.083Z,96976.69
2023-05-16T15:24:18.167Z,96988.47
2023-05-16T15:26:44.930Z,96994.41
2023-05-16T15:29:11.773Z,96977.84
2023-05-16T15:31:38.521Z,96984.84
2023-05-16T15:34:06.574Z,96994.28
2023-05-16T15:36:33.510Z,96990.31
2023-05-16T15:39:00.280Z,96987.50
2023-05-16T15:43:58.674Z,96993.63
2023-05-16T15:46:25.630Z,96965.06
2023-05-16T15:48:52.662Z,96985.03
2023-05-16T15:51:19.578Z,96983.69
2023-05-16T15:53:48.055Z,96969.38
2023-05-16T15:56:14.836Z,96963.34
2023-05-16T15:58:41.893Z,96966.41
2023-05-16T16:01:08.663Z,96963.25
2023-05-16T16:03:35.642Z,96969.16
2023-05-16T16:06:02.497Z,96946.19
2023-05-16T16:08:30.375Z,96958.16
2023-05-16T16:10:57.151Z,96949.47
2023-05-16T16:13:24.508Z,96957.84
2023-05-16T16:15:52.297Z,96960.56
2023-05-16T16:18:19.153Z,96959.38
2023-05-16T16:20:45.937Z,96966.06
2023-05-16T16:23:12.742Z,96951.03
2023-05-16T16:25:39.661Z,96955.38
2023-05-16T16:28:06.737Z,96960.03
2023-05-16T16:30:33.438Z,96901.25
2023-05-16T16:33:00.423Z,96944.84
2023-05-16T16:35:27.556Z,96952.22
2023-05-16T16:40:29.207Z,96947.28
2023-05-16T16:42:56.143Z,96961.03
2023-05-16T16:45:22.995Z,96960.66
2023-05-16T16:47:50.090Z,96953.97
2023-05-16T16:50:16.904Z,96948.06
2023-05-16T16:52:43.668Z,96943.72
2023-05-16T16:55:10.566Z,96937.47
2023-05-16T16:57:37.605Z,96952.38
2023-05-16T17:00:04.894Z,96934.50
2023-05-16T17:02:31.763Z,96962.91
2023-05-16T17:04:58.609Z,96958.84
2023-05-16T17:07:25.356Z,96961.63
2023-05-16T17:09:54.021Z,96966.38
2023-05-16T17:12:22.376Z,96960.84
2023-05-16T17:14:51.481Z,96952.13
2023-05-16T17:17:19.033Z,96951.34
2023-05-16T17:19:47.210Z,96975.78
2023-05-16T17:22:16.953Z,96967.47
2023-05-16T17:24:43.875Z,96962.94
2023-05-16T17:27:10.597Z,96963.66
2023-05-16T17:29:37.638Z,96961.44
2023-05-16T17:32:06.366Z,96958.53
2023-05-16T17:34:33.525Z,96952.91
2023-05-16T17:37:00.376Z,96958.72
2023-05-16T17:39:27.121Z,96958.63
2023-05-16T17:41:55.219Z,96974.34
2023-05-16T17:44:21.988Z,96974.44
2023-05-16T17:46:48.881Z,96959.44
2023-05-16T17:49:15.725Z,96976.41
2023-05-16T17:52:00.881Z,96968.94
2023-05-16T17:54:31.165Z,96984.63
2023-05-16T17:56:58.728Z,96980.03
2023-05-16T17:59:27.575Z,96988.16
2023-05-16T18:01:58.892Z,96983.53
2023-05-16T18:04:26.210Z,96985.91
2023-05-16T18:06:53.083Z,96986.94
2023-05-16T18:09:21.055Z,96988.34
2023-05-16T18:11:47.835Z,96985.66
2023-05-16T18:14:15.575Z,96980.13
2023-05-16T18:16:42.536Z,96990.09
2023-05-16T18:19:09.554Z,96991.66
2023-05-16T18:21:37.667Z,96987.03
2023-05-16T18:24:05.624Z,97002.25
2023-05-16T18:26:32.447Z,96996.09
2023-05-16T18:28:59.470Z,97004.97
2023-05-16T18:31:26.295Z,97001.25
2023-05-16T18:33:53.023Z,96991.25
2023-05-16T18:36:19.806Z,96994.59
2023-05-16T18:38:46.603Z,97007.78
2023-05-16T18:41:13.394Z,97012.75
2023-05-16T18:43:40.144Z,97016.66
2023-05-16T18:46:06.926Z,97011.03
2023-05-16T18:48:35.962Z,96992.25
2023-05-16T18:51:03.181Z,97006.53
2023-05-16T18:53:29.994Z,97009.00
2023-05-16T18:55:56.806Z,97017.50
2023-05-16T18:58:23.632Z,97025.44
2023-05-16T19:00:50.629Z,97007.56
2023-05-16T19:03:17.580Z,97019.72
2023-05-16T19:05:45.040Z,97028.75
2023-05-16T19:08:12.126Z,97033.06
2023-05-16T19:10:41.730Z,97035.00
2023-05-16T19:13:09.152Z,97032.75
2023-05-16T19:15:36.989Z,97039.53
2023-05-16T19:18:05.179Z,97032.41
2023-05-16T19:20:33.680Z,97041.19
2023-05-16T19:23:00.986Z,97040.84
2023-05-16T19:25:28.300Z,97050.06
2023-05-16T19:27:55.179Z,97043.13
2023-05-16T19:30:22.048Z,97042.88
2023-05-16T19:32:48.854Z,97048.09
2023-05-16T19:35:15.741Z,97045.50
2023-05-16T19:37:42.441Z,97044.25
2023-05-16T19:40:09.583Z,97036.16
2023-05-16T19:42:36.369Z,97032.25
2023-05-16T19:45:03.281Z,97036.09
2023-05-16T19:47:30.164Z,97032.09
2023-05-16T19:49:57.144Z,97040.69
2023-05-16T19:52:26.289Z,97050.72
2023-05-16T19:54:53.235Z,97042.50
2023-05-16T19:57:22.668Z,97044.44
2023-05-16T19:59:49.462Z,97023.72
2023-05-16T20:02:21.029Z,97031.13
2023-05-16T20:04:49.257Z,97017.66
2023-05-16T20:07:15.995Z,97025.56
2023-05-16T20:09:42.817Z,97007.94
2023-05-16T20:12:10.036Z,97021.78
2023-05-16T20:14:38.042Z,97023.81
2023-05-16T20:17:04.737Z,97024.53
2023-05-16T20:19:31.684Z,97018.34
2023-05-16T20:21:58.687Z,96991.97
2023-05-16T20:24:25.409Z,97006.19
2023-05-16T20:26:52.257Z,97005.56
2023-05-16T20:29:19.009Z,97004.41
2023-05-16T20:31:45.766Z,97010.69
2023-05-16T20:34:12.630Z,97007.84
2023-05-16T20:36:39.601Z,97005.69
2023-05-16T20:39:09.084Z,97004.66
2023-05-16T20:41:36.081Z,97005.38
2023-05-16T20:44:02.822Z,97001.41
2023-05-16T20:46:29.678Z,97006.97
2023-05-16T20:48:56.481Z,96995.06
2023-05-16T20:51:23.346Z,96997.22
2023-05-16T20:53:50.253Z,96998.28
2023-05-16T20:56:16.959Z,97003.47
2023-05-16T20:58:43.934Z,96998.28
2023-05-16T21:01:10.838Z,96978.25
2023-05-16T21:03:37.679Z,96992.34
2023-05-16T21:06:04.713Z,96993.78
2023-05-16T21:08:33.633Z,97000.66
2023-05-16T21:11:00.509Z,96996.50
2023-05-16T21:13:27.282Z,97005.63
2023-05-16T21:15:54.046Z,96999.44
2023-05-16T21:18:21.055Z,96982.19
2023-05-16T21:20:47.754Z,96973.81
2023-05-16T21:23:14.470Z,96964.38
2023-05-16T21:25:41.318Z,96957.16
2023-05-16T21:28:14.085Z,96931.00
2023-05-16T21:30:40.838Z,96941.41
2023-05-16T21:33:07.646Z,96950.72
2023-05-16T21:35:34.697Z,96954.16
2023-05-16T21:38:01.399Z,96948.34
2023-05-16T21:40:29.026Z,96927.72
2023-05-16T21:42:55.869Z,96920.34
2023-05-16T21:45:22.719Z,96937.88
2023-05-16T21:47:49.607Z,96932.06
2023-05-16T21:50:17.516Z,96935.31
2023-05-16T21:52:44.458Z,96941.84
2023-05-16T21:55:11.427Z,96938.22
2023-05-16T21:57:38.242Z,96935.94
2023-05-16T22:00:09.377Z,96930.97
2023-05-16T22:02:37.032Z,96932.06
2023-05-16T22:05:05.078Z,96921.50
2023-05-16T22:07:32.064Z,96913.94
2023-05-16T22:09:59.696Z,96907.50
2023-05-16T22:12:27.677Z,96919.47
2023-05-16T22:14:54.519Z,96911.19
2023-05-16T22:17:21.825Z,96902.28
2023-05-16T22:19:48.873Z,96918.50
2023-05-16T22:22:16.755Z,96916.09
2023-05-16T22:24:43.602Z,96903.25
2023-05-16T22:27:10.358Z,96931.44
2023-05-16T22:29:39.890Z,96916.91
2023-05-16T22:32:10.735Z,96907.84
2023-05-16T22:34:41.119Z,96908.63
2023-05-16T22:37:08.459Z,96909.00
2023-05-16T22:39:35.883Z,96909.78
2023-05-16T22:42:03.074Z,96917.19
2023-05-16T22:44:30.121Z,96912.88
2023-05-16T22:46:57.023Z,96915.75
2023-05-16T22:49:23.930Z,96920.88
2023-05-16T22:51:50.720Z,96922.34
2023-05-16T22:54:17.860Z,96918.84
2023-05-16T22:56:44.548Z,96908.63
2023-05-16T22:59:11.383Z,96911.19
2023-05-16T23:01:38.135Z,96900.09
2023-05-16T23:04:05.149Z,96903.97
2023-05-16T23:06:32.817Z,96905.75
2023-05-16T23:09:04.202Z,96899.09
2023-05-16T23:11:33.960Z,96902.19
2023-05-16T23:14:00.917Z,96897.75
2023-05-16T23:16:27.700Z,96894.69
2023-05-16T23:18:54.610Z,96900.59
2023-05-16T23:21:21.417Z,96900.59
2023-05-16T23:23:48.246Z,96898.31
2023-05-16T23:26:15.089Z,96906.13
2023-05-16T23:28:41.799Z,96893.19
2023-05-16T23:31:08.494Z,96903.84
2023-05-16T23:33:35.350Z,96913.94
2023-05-16T23:36:02.020Z,96906.25
2023-05-16T23:38:28.677Z,96910.63
2023-05-16T23:40:55.493Z,96907.22
2023-05-16T23:43:22.146Z,96918.56
2023-05-16T23:45:48.891Z,96913.66
2023-05-16T23:48:15.946Z,96914.97
2023-05-16T23:50:42.771Z,96927.56
2023-05-16T23:53:09.539Z,96924.19
2023-05-16T23:55:36.309Z,96929.75
2023-05-16T23:58:03.199Z,96929.16
